This is the latest recevied weather packets stored in our database for station/object SP6PGH-13. If no packets are shown the sender has not sent any weather packets the latest 1 day(s).
| Time | Temp. | Humidity | Pressure | Rain* | Wind** | Luminosity | Snow |
|---|---|---|---|---|---|---|---|
| 1777979600 | 26.11° C | 33% | 992.8 hPa | - | 0.45 m/s, 118° | 770 W/m² | - |
| 1777978699 | 25.56° C | 35% | 992.9 hPa | - | 0.45 m/s, 66° | 748 W/m² | - |
| 1777977797 | 25° C | 38% | 993.1 hPa | - | 0.89 m/s, 260° | 545 W/m² | - |
| 1777976896 | 24.44° C | 41% | 993.3 hPa | - | 0.45 m/s, 264° | 499 W/m² | - |
| 1777975995 | 23.33° C | 45% | 993.4 hPa | - | 0.45 m/s, 276° | 573 W/m² | - |
| 1777975094 | 23.89° C | 42% | 993.5 hPa | - | 0.45 m/s, 222° | 461 W/m² | - |
| 1777974193 | 24.44° C | 41% | 993.6 hPa | - | 0.45 m/s, 120° | 629 W/m² | - |
| 1777973292 | 23.89° C | 41% | 993.7 hPa | - | 0.45 m/s, 306° | 759 W/m² | - |
| 1777972391 | 22.22° C | 47% | 993.9 hPa | - | 0.89 m/s, 36° | 659 W/m² | - |
| 1777971490 | 21.67° C | 49% | 994.1 hPa | - | 0.45 m/s, 12° | 658 W/m² | - |
| 1777970589 | 20.56° C | 55% | 994.4 hPa | - | 0 m/s | 441 W/m² | - |
| 1777969687 | 19.44° C | 57% | 994.4 hPa | - | 0.45 m/s, 274° | 317 W/m² | - |
| 1777968786 | 18.89° C | 60% | 994.5 hPa | - | 0.45 m/s, 33° | 274 W/m² | - |
| 1777967885 | 18.33° C | 63% | 994.6 hPa | - | 0 m/s | 214 W/m² | - |
| 1777966984 | 17.78° C | 66% | 994.6 hPa | - | 0 m/s | 137 W/m² | - |
| 1777966083 | 17.22° C | 68% | 994.7 hPa | - | 0 m/s | 117 W/m² | - |
| 1777965182 | 17.22° C | 70% | 994.7 hPa | - | 0 m/s | 135 W/m² | - |
| 1777964281 | 17.22° C | 69% | 994.8 hPa | - | 0 m/s | 127 W/m² | - |
| 1777963381 | 16.67° C | 68% | 994.8 hPa | - | 0 m/s | 90 W/m² | - |
| 1777962479 | 16.11° C | 70% | 995 hPa | - | 0 m/s | 122 W/m² | - |
| 1777961578 | 15.56° C | 70% | 995 hPa | - | 0 m/s | 92 W/m² | - |
| 1777960678 | 15° C | 72% | 995.2 hPa | - | 0 m/s | 87 W/m² | - |
| 1777959776 | 15.56° C | 72% | 995.3 hPa | - | 0 m/s | 80 W/m² | - |
| 1777958875 | 15° C | 71% | 995.3 hPa | - | 0 m/s | 88 W/m² | - |
| 1777957975 | 14.44° C | 73% | 995.4 hPa | - | 0 m/s | 111 W/m² | - |
* Rain since midnight (hover to see other rain measurements)
** Current wind speed in m/s (hover to see current wind gust speed)